createdAt,value
2019-01-18T00:00:45.300Z,8.00
2019-01-18T00:03:17.369Z,8.07
2019-01-18T00:05:49.397Z,7.13
2019-01-18T00:08:21.431Z,10.40
2019-01-18T00:10:53.356Z,7.37
2019-01-18T00:13:25.402Z,6.50
2019-01-18T00:15:57.363Z,6.33
2019-01-18T00:18:29.791Z,7.80
2019-01-18T00:21:01.857Z,7.80
2019-01-18T00:23:33.921Z,8.10
2019-01-18T00:26:05.945Z,6.23
2019-01-18T00:28:37.890Z,4.40
2019-01-18T00:31:09.827Z,7.60
2019-01-18T00:33:41.801Z,5.57
2019-01-18T00:36:13.732Z,5.77
2019-01-18T00:38:45.759Z,5.90
2019-01-18T00:41:17.780Z,5.27
2019-01-18T00:43:49.753Z,5.30
2019-01-18T00:46:21.692Z,5.10
2019-01-18T00:48:53.663Z,7.63
2019-01-18T00:51:25.619Z,8.30
2019-01-18T00:53:57.620Z,9.10
2019-01-18T00:56:29.570Z,6.63
2019-01-18T00:59:03.156Z,6.63
2019-01-18T01:01:35.085Z,5.40
2019-01-18T01:04:07.054Z,6.00
2019-01-18T01:06:39.135Z,5.40
2019-01-18T01:09:11.139Z,6.37
2019-01-18T01:11:43.098Z,6.33
2019-01-18T01:14:15.137Z,6.80
2019-01-18T01:16:47.061Z,5.30
2019-01-18T01:19:19.016Z,6.43
2019-01-18T01:21:50.974Z,7.77
2019-01-18T01:24:23.007Z,7.43
2019-01-18T01:26:55.105Z,8.10
2019-01-18T01:29:27.095Z,4.37
2019-01-18T01:31:59.104Z,5.43
2019-01-18T01:34:31.090Z,6.43
2019-01-18T01:37:03.035Z,7.40
2019-01-18T01:39:34.993Z,6.47
2019-01-18T01:42:07.039Z,8.53
2019-01-18T01:44:39.083Z,6.43
2019-01-18T01:47:11.042Z,7.87
2019-01-18T01:49:42.978Z,7.37
2019-01-18T01:52:15.182Z,7.77
2019-01-18T01:54:50.761Z,6.53
2019-01-18T01:57:22.688Z,8.47
2019-01-18T01:59:54.669Z,6.60
2019-01-18T02:02:26.604Z,8.27
2019-01-18T02:04:58.573Z,3.73
2019-01-18T02:07:30.526Z,6.53
2019-01-18T02:10:02.658Z,3.67
2019-01-18T02:12:35.258Z,4.63
2019-01-18T02:15:09.012Z,6.30
2019-01-18T02:17:40.992Z,3.37
2019-01-18T02:20:15.059Z,4.77
2019-01-18T02:22:47.067Z,7.87
2019-01-18T02:25:19.092Z,5.90
2019-01-18T02:27:51.171Z,5.43
2019-01-18T02:30:25.714Z,6.43
2019-01-18T02:32:57.717Z,8.17
2019-01-18T02:35:29.659Z,9.17
2019-01-18T02:38:01.617Z,6.53
2019-01-18T02:40:33.595Z,6.90
2019-01-18T02:43:05.522Z,4.73
2019-01-18T02:45:37.489Z,7.97
2019-01-18T02:48:09.492Z,5.77
2019-01-18T02:50:41.469Z,6.77
2019-01-18T02:53:13.537Z,8.07
2019-01-18T02:55:45.510Z,6.93
2019-01-18T02:58:17.548Z,5.33
2019-01-18T03:00:49.546Z,11.33
2019-01-18T03:03:21.495Z,11.07
2019-01-18T03:05:53.491Z,8.60
2019-01-18T03:08:26.487Z,6.20
2019-01-18T03:10:58.446Z,4.33
2019-01-18T03:13:30.439Z,6.87
2019-01-18T03:16:02.397Z,7.73
2019-01-18T03:18:34.326Z,5.90
2019-01-18T03:21:06.391Z,7.17
2019-01-18T03:23:39.481Z,7.80
2019-01-18T03:26:11.548Z,8.03
2019-01-18T03:28:43.555Z,6.27
2019-01-18T03:31:16.618Z,10.90
2019-01-18T03:33:48.590Z,8.77
2019-01-18T03:36:20.569Z,9.83
2019-01-18T03:38:52.554Z,5.77
2019-01-18T03:41:24.618Z,6.00
2019-01-18T03:43:56.618Z,9.17
2019-01-18T03:46:28.593Z,5.67
2019-01-18T03:49:00.521Z,6.60
2019-01-18T03:51:32.487Z,5.77
2019-01-18T03:54:04.457Z,8.33
2019-01-18T03:56:36.433Z,8.87
2019-01-18T03:59:08.367Z,10.10
2019-01-18T04:01:40.355Z,6.63
2019-01-18T04:04:12.306Z,6.43
2019-01-18T04:06:44.266Z,8.67
2019-01-18T04:09:16.194Z,8.00
2019-01-18T04:11:48.150Z,9.80
2019-01-18T04:14:20.101Z,9.03
2019-01-18T04:16:52.077Z,14.47
2019-01-18T04:19:24.038Z,9.63
2019-01-18T04:21:55.998Z,10.00
2019-01-18T04:24:28.405Z,12.33
2019-01-18T04:27:00.432Z,10.43
2019-01-18T04:29:32.386Z,11.33
2019-01-18T04:32:04.381Z,10.77
2019-01-18T04:34:36.318Z,9.87
2019-01-18T04:37:08.282Z,8.57
2019-01-18T04:39:40.265Z,8.00
2019-01-18T04:42:12.406Z,8.47
2019-01-18T04:44:44.460Z,5.60
2019-01-18T04:47:16.425Z,7.77
2019-01-18T04:49:48.371Z,8.50
2019-01-18T04:52:20.347Z,5.67
2019-01-18T04:54:52.307Z,6.97
2019-01-18T04:57:24.415Z,6.23
2019-01-18T04:59:56.358Z,6.23
2019-01-18T05:02:28.471Z,7.40
2019-01-18T05:05:00.537Z,8.03
2019-01-18T05:07:33.047Z,7.03
2019-01-18T05:10:09.740Z,7.43
2019-01-18T05:12:41.687Z,7.63
2019-01-18T05:15:16.224Z,8.70
2019-01-18T05:17:48.338Z,10.90
2019-01-18T05:20:21.424Z,10.07
2019-01-18T05:22:53.363Z,10.27
2019-01-18T05:25:25.439Z,9.30
2019-01-18T05:27:57.492Z,8.37
2019-01-18T05:30:30.435Z,11.43
2019-01-18T05:33:02.500Z,9.87
2019-01-18T05:35:34.449Z,10.33
2019-01-18T05:38:06.499Z,9.27
2019-01-18T05:40:38.763Z,9.93
2019-01-18T05:43:10.845Z,9.47
2019-01-18T05:45:42.885Z,9.23
2019-01-18T05:48:14.834Z,8.00
2019-01-18T05:50:46.772Z,9.37
2019-01-18T05:53:19.013Z,9.60
2019-01-18T05:55:51.026Z,9.13
2019-01-18T05:58:22.967Z,10.20
2019-01-18T06:01:05.997Z,9.70
2019-01-18T06:03:37.973Z,8.57
2019-01-18T06:06:10.667Z,7.40
2019-01-18T06:08:42.644Z,12.17
2019-01-18T06:11:14.702Z,11.37
2019-01-18T06:13:46.736Z,11.07
2019-01-18T06:16:18.723Z,10.07
2019-01-18T06:18:50.665Z,11.57
2019-01-18T06:21:22.673Z,11.13
2019-01-18T06:23:54.665Z,12.70
2019-01-18T06:26:26.757Z,11.97
2019-01-18T06:28:58.932Z,25.17
2019-01-18T06:31:30.911Z,21.13
2019-01-18T06:34:02.876Z,12.10
2019-01-18T06:36:34.857Z,11.07
2019-01-18T06:39:08.220Z,14.13
2019-01-18T06:41:46.403Z,11.63
2019-01-18T06:44:18.367Z,11.70
2019-01-18T06:46:50.417Z,17.00
2019-01-18T06:49:22.359Z,12.60
2019-01-18T06:51:54.356Z,12.00
2019-01-18T06:54:26.368Z,16.27
2019-01-18T06:56:58.413Z,13.57
2019-01-18T06:59:30.401Z,18.47
2019-01-18T07:02:02.451Z,17.50
2019-01-18T07:04:40.781Z,14.00
2019-01-18T07:07:08.806Z,14.57
2019-01-18T07:09:40.818Z,13.03
2019-01-18T07:12:12.784Z,16.40
2019-01-18T07:14:44.753Z,15.13
2019-01-18T07:17:16.731Z,18.30
2019-01-18T07:19:48.769Z,18.37
2019-01-18T07:22:20.812Z,17.90
2019-01-18T07:24:52.771Z,16.47
2019-01-18T07:27:24.798Z,14.13
2019-01-18T07:29:56.785Z,15.80
2019-01-18T07:32:29.033Z,13.83
2019-01-18T07:35:01.157Z,47.03
2019-01-18T07:37:33.278Z,43.10
2019-01-18T07:40:06.306Z,16.93
2019-01-18T07:42:38.364Z,17.87
2019-01-18T07:45:14.702Z,19.50
2019-01-18T07:47:46.666Z,16.10
2019-01-18T07:50:20.143Z,13.37
2019-01-18T07:52:52.636Z,16.67
2019-01-18T07:55:24.595Z,15.73
2019-01-18T07:57:56.578Z,13.50
2019-01-18T08:00:29.853Z,17.10
2019-01-18T08:03:01.835Z,12.20
2019-01-18T08:05:33.895Z,12.07
2019-01-18T08:08:05.888Z,11.87
2019-01-18T08:10:37.900Z,16.93
2019-01-18T08:13:09.899Z,14.23
2019-01-18T08:15:41.919Z,14.37
2019-01-18T08:18:13.952Z,12.80
2019-01-18T08:20:45.915Z,14.43
2019-01-18T08:23:17.871Z,14.47
2019-01-18T08:25:49.815Z,15.67
2019-01-18T08:28:22.077Z,17.83
2019-01-18T08:30:54.040Z,15.40
2019-01-18T08:33:26.050Z,13.67
2019-01-18T08:35:58.000Z,19.43
2019-01-18T08:38:29.975Z,15.53
2019-01-18T08:41:01.957Z,17.73
2019-01-18T08:43:33.934Z,16.03
2019-01-18T08:46:08.455Z,20.60
2019-01-18T08:48:40.449Z,18.53
2019-01-18T09:14:28.185Z,9.88
2019-01-18T09:17:00.260Z,8.03
2019-01-18T09:19:32.254Z,9.20
2019-01-18T09:22:04.371Z,7.43
2019-01-18T09:24:36.381Z,9.10
2019-01-18T09:27:08.326Z,9.17
2019-01-18T09:29:40.321Z,9.20
2019-01-18T09:32:12.582Z,12.27
2019-01-18T09:34:44.527Z,11.97
2019-01-18T09:37:16.546Z,13.27
2019-01-18T09:39:48.530Z,13.13
2019-01-18T09:42:20.560Z,14.03
2019-01-18T09:44:52.560Z,12.90
2019-01-18T09:47:24.531Z,12.57
2019-01-18T09:49:56.486Z,16.57
2019-01-18T09:52:28.445Z,14.40
2019-01-18T09:55:00.396Z,13.77
2019-01-18T09:57:32.563Z,14.90
2019-01-18T10:00:06.342Z,19.27
2019-01-18T10:02:38.402Z,16.93
2019-01-18T10:05:11.129Z,16.73
2019-01-18T10:07:44.198Z,14.63
2019-01-18T10:10:17.710Z,15.17
2019-01-18T10:12:49.902Z,14.57
2019-01-18T10:15:27.681Z,16.83
2019-01-18T10:18:00.738Z,16.07
2019-01-18T10:20:33.062Z,13.77
2019-01-18T10:23:05.034Z,11.47
2019-01-18T10:25:37.075Z,10.97
2019-01-18T10:28:09.250Z,14.50
2019-01-18T10:30:41.232Z,11.83
2019-01-18T10:33:13.204Z,14.67
2019-01-18T10:35:45.264Z,15.67
2019-01-18T10:38:17.226Z,14.07
2019-01-18T10:40:49.236Z,14.30
2019-01-18T10:43:21.239Z,13.47
2019-01-18T10:45:53.220Z,13.97
2019-01-18T10:48:25.166Z,14.10
2019-01-18T10:50:57.126Z,11.30
2019-01-18T10:53:29.096Z,10.67
2019-01-18T10:56:01.050Z,11.80
2019-01-18T10:58:33.050Z,11.63
2019-01-18T11:01:05.027Z,9.30
2019-01-18T11:03:36.988Z,10.97
2019-01-18T11:06:08.959Z,8.95
2019-01-18T11:08:40.937Z,8.08
2019-01-18T11:11:12.959Z,9.93
2019-01-18T11:13:44.965Z,7.50
2019-01-18T11:16:16.943Z,8.00
2019-01-18T11:18:48.880Z,9.30
2019-01-18T11:21:22.664Z,12.70
2019-01-18T11:23:54.595Z,6.80
2019-01-18T11:26:26.588Z,10.30
2019-01-18T11:29:00.154Z,8.60
2019-01-18T11:31:32.115Z,7.27
2019-01-18T11:34:04.273Z,9.20
2019-01-18T11:36:36.249Z,11.23
2019-01-18T11:39:08.662Z,9.23
2019-01-18T11:41:40.918Z,7.37
2019-01-18T11:44:12.931Z,8.67
2019-01-18T11:46:44.906Z,8.33
2019-01-18T11:49:16.868Z,6.57
2019-01-18T11:51:48.902Z,7.43
2019-01-18T11:54:20.891Z,7.67
2019-01-18T11:56:52.863Z,7.17
2019-01-18T11:59:24.821Z,8.37
2019-01-18T12:01:56.790Z,6.43
2019-01-18T12:04:28.774Z,7.07
2019-01-18T12:07:00.876Z,7.70
2019-01-18T12:09:32.917Z,4.10
2019-01-18T12:12:04.945Z,4.90
2019-01-18T12:14:36.838Z,5.27
2019-01-18T12:17:08.878Z,5.30
2019-01-18T12:19:40.827Z,7.00
2019-01-18T12:22:12.839Z,4.70
2019-01-18T12:24:44.789Z,7.10
2019-01-18T12:27:16.809Z,5.12
2019-01-18T12:29:48.766Z,4.70
2019-01-18T12:32:20.740Z,5.65
2019-01-18T12:34:52.704Z,4.17
2019-01-18T12:37:24.779Z,4.47
2019-01-18T12:39:56.759Z,8.90
2019-01-18T12:42:28.846Z,5.33
2019-01-18T12:45:01.277Z,6.83
2019-01-18T12:47:33.520Z,7.00
2019-01-18T12:50:07.513Z,9.50
2019-01-18T12:52:39.525Z,8.23
2019-01-18T12:55:11.477Z,7.60
2019-01-18T12:57:43.469Z,10.47
2019-01-18T13:00:17.219Z,10.97
2019-01-18T13:02:49.209Z,8.60
2019-01-18T13:05:30.263Z,15.23
2019-01-18T13:08:02.260Z,12.67
2019-01-18T13:10:34.330Z,10.87
2019-01-18T13:13:06.386Z,9.17
2019-01-18T13:15:59.197Z,10.73
2019-01-18T13:18:31.747Z,11.13
2019-01-18T13:21:03.769Z,8.97
2019-01-18T13:23:35.782Z,10.67
2019-01-18T13:26:07.798Z,11.80
2019-01-18T13:28:39.777Z,9.80
2019-01-18T13:31:11.749Z,12.70
2019-01-18T13:33:43.749Z,19.27
2019-01-18T13:36:16.186Z,13.27
2019-01-18T13:38:48.171Z,10.27
2019-01-18T13:41:20.217Z,9.87
2019-01-18T13:43:52.225Z,10.87
2019-01-18T13:46:24.191Z,8.97
2019-01-18T13:48:56.145Z,11.33
2019-01-18T13:51:28.086Z,15.80
2019-01-18T13:54:00.050Z,9.93
2019-01-18T13:56:32.052Z,8.77
2019-01-18T13:59:04.032Z,6.87
2019-01-18T14:01:36.000Z,7.73
2019-01-18T14:04:08.011Z,9.17
2019-01-18T14:06:40.152Z,8.53
2019-01-18T14:09:12.209Z,7.90
2019-01-18T14:11:44.164Z,10.33
2019-01-18T14:14:18.609Z,10.73
2019-01-18T14:16:50.585Z,6.80
2019-01-18T14:19:22.571Z,10.30
2019-01-18T14:21:54.525Z,10.47
2019-01-18T14:24:26.502Z,20.87
2019-01-18T14:26:58.462Z,10.00
2019-01-18T14:29:30.447Z,9.00
2019-01-18T14:32:02.427Z,12.67
2019-01-18T14:34:34.411Z,12.30
2019-01-18T14:37:06.405Z,13.77
2019-01-18T14:39:39.556Z,13.63
2019-01-18T14:42:11.513Z,16.87
2019-01-18T14:44:43.487Z,12.67
2019-01-18T14:47:15.444Z,16.53
2019-01-18T14:49:47.584Z,16.63
2019-01-18T14:52:19.947Z,11.53
2019-01-18T14:54:51.922Z,14.20
2019-01-18T14:57:23.935Z,12.70
2019-01-18T14:59:55.969Z,9.77
2019-01-18T15:02:28.024Z,11.33
2019-01-18T15:05:00.049Z,12.47
2019-01-18T15:07:32.064Z,9.07
2019-01-18T15:10:05.855Z,11.33
2019-01-18T15:12:37.810Z,11.97
2019-01-18T15:15:11.878Z,9.97
2019-01-18T15:17:44.048Z,13.30
2019-01-18T15:20:21.454Z,12.83
2019-01-18T15:22:53.478Z,11.40
2019-01-18T15:25:25.553Z,11.83
2019-01-18T15:27:57.593Z,12.70
2019-01-18T15:30:30.723Z,18.40
2019-01-18T15:33:08.807Z,17.87
2019-01-18T15:35:40.017Z,19.63
2019-01-18T15:38:12.862Z,20.20
2019-01-18T15:40:47.655Z,31.53
2019-01-18T15:43:21.917Z,30.03
2019-01-18T15:45:54.984Z,33.73
2019-01-18T15:48:26.941Z,30.87
2019-01-18T15:50:59.002Z,28.30
2019-01-18T15:53:31.033Z,26.43
2019-01-18T15:56:03.139Z,18.17
2019-01-18T15:58:35.552Z,17.27
2019-01-18T16:01:09.061Z,12.77
2019-01-18T16:03:41.241Z,13.87
2019-01-18T16:06:13.380Z,9.00
2019-01-18T16:08:45.508Z,10.67
2019-01-18T16:11:27.591Z,11.03
2019-01-18T16:13:59.772Z,11.20
2019-01-18T16:16:39.739Z,10.77
2019-01-18T16:19:11.907Z,8.97
2019-01-18T16:21:43.975Z,15.53
2019-01-18T16:24:16.024Z,16.70
2019-01-18T16:26:48.045Z,12.03
2019-01-18T16:29:20.041Z,15.63
2019-01-18T16:31:52.465Z,16.67
2019-01-18T16:34:24.595Z,16.30
2019-01-18T16:36:56.588Z,19.37
2019-01-18T16:39:28.833Z,21.40
2019-01-18T16:42:00.957Z,20.53
2019-01-18T16:44:32.978Z,15.77
2019-01-18T16:47:05.412Z,19.90
2019-01-18T16:49:37.420Z,17.80
2019-01-18T16:52:09.475Z,16.97
2019-01-18T16:54:41.497Z,20.07
2019-01-18T16:57:13.528Z,25.23
2019-01-18T16:59:45.479Z,19.50
2019-01-18T17:02:17.480Z,35.00
2019-01-18T17:04:49.533Z,23.10
2019-01-18T17:07:21.603Z,21.87
2019-01-18T17:09:53.562Z,22.23
2019-01-18T17:12:25.590Z,25.00
2019-01-18T17:14:57.605Z,25.23
2019-01-18T17:17:29.666Z,28.83
2019-01-18T17:20:01.634Z,28.13
2019-01-18T17:22:33.810Z,31.00
2019-01-18T17:25:06.439Z,49.93
2019-01-18T17:27:38.528Z,36.87
2019-01-18T17:30:13.589Z,40.97
2019-01-18T17:32:45.575Z,22.00
2019-01-18T17:35:24.147Z,28.97
2019-01-18T17:38:13.159Z,31.50
2019-01-18T17:40:55.408Z,27.83
2019-01-18T17:44:10.329Z,30.33
2019-01-18T17:47:17.860Z,33.73
2019-01-18T17:50:31.070Z,31.67
2019-01-18T17:53:56.581Z,36.83
2019-01-18T17:57:15.186Z,42.63
2019-01-18T18:00:40.546Z,42.90
2019-01-18T18:03:43.609Z,45.27
2019-01-18T18:06:45.457Z,40.33
2019-01-18T18:09:26.880Z,37.67
2019-01-18T18:12:37.595Z,36.80
2019-01-18T18:16:02.764Z,38.40
2019-01-18T18:19:03.664Z,37.03
2019-01-18T18:22:24.430Z,41.40
2019-01-18T18:25:28.366Z,50.83
2019-01-18T18:28:20.342Z,48.53
2019-01-18T18:31:24.511Z,53.67
2019-01-18T18:34:46.732Z,41.67
2019-01-18T18:37:51.192Z,34.53
2019-01-18T18:41:10.439Z,36.67
2019-01-18T18:44:04.646Z,30.43
2019-01-18T18:47:17.956Z,18.27
2019-01-18T18:50:26.601Z,22.63
2019-01-18T18:53:44.381Z,17.37
2019-01-18T18:57:16.274Z,13.90
2019-01-18T19:00:05.447Z,16.67
2019-01-18T19:03:24.688Z,21.40
2019-01-18T19:06:27.033Z,22.10
2019-01-18T19:09:22.040Z,17.73
2019-01-18T19:12:46.971Z,20.53
2019-01-18T19:15:50.270Z,15.33
2019-01-18T19:18:48.987Z,18.53
2019-01-18T19:22:01.413Z,74.70
2019-01-18T19:25:29.339Z,103.40
2019-01-18T19:28:40.651Z,41.10
2019-01-18T19:31:47.681Z,23.80
2019-01-18T19:34:44.452Z,20.77
2019-01-18T19:38:05.843Z,22.17
2019-01-18T19:41:05.832Z,21.30
2019-01-18T19:44:39.996Z,19.17
2019-01-18T19:47:39.485Z,23.13
2019-01-18T19:50:43.308Z,23.23
2019-01-18T19:53:39.501Z,22.50
2019-01-18T19:56:42.075Z,21.77
2019-01-18T19:59:43.572Z,25.23
2019-01-18T20:03:02.220Z,18.87
2019-01-18T20:05:56.020Z,19.37
2019-01-18T20:08:39.981Z,16.77
2019-01-18T20:11:44.895Z,21.33
2019-01-18T20:15:04.841Z,22.00
2019-01-18T20:18:23.026Z,19.13
2019-01-18T20:21:08.369Z,20.67
2019-01-18T20:24:07.363Z,23.60
2019-01-18T20:27:06.489Z,20.27
2019-01-18T20:30:23.618Z,21.40
2019-01-18T20:33:27.827Z,22.73
2019-01-18T20:36:31.745Z,19.47
2019-01-18T20:39:41.640Z,20.60
2019-01-18T20:42:48.129Z,19.33
2019-01-18T20:45:46.414Z,20.70
2019-01-18T20:48:44.393Z,18.13
2019-01-18T20:51:57.678Z,16.57
2019-01-18T20:55:22.488Z,19.73
2019-01-18T20:58:30.417Z,23.97
2019-01-18T21:01:48.071Z,21.40
2019-01-18T21:04:53.450Z,21.03
2019-01-18T21:08:12.503Z,22.97
2019-01-18T21:11:27.865Z,19.70
2019-01-18T21:14:44.994Z,23.50
2019-01-18T21:17:47.293Z,24.07
2019-01-18T21:20:59.400Z,21.07
2019-01-18T21:24:11.432Z,22.37
2019-01-18T21:27:30.304Z,22.97
2019-01-18T21:30:30.166Z,23.40
2019-01-18T21:34:04.747Z,26.97
2019-01-18T21:37:33.800Z,17.90
2019-01-18T21:40:43.071Z,26.37
2019-01-18T21:44:11.011Z,18.83
2019-01-18T21:47:06.081Z,19.90
2019-01-18T21:50:12.071Z,23.57
2019-01-18T21:53:18.367Z,27.53
2019-01-18T21:56:25.979Z,29.57
2019-01-18T21:59:27.903Z,24.17
2019-01-18T22:03:02.497Z,20.60
2019-01-18T22:06:10.426Z,24.07
2019-01-18T22:09:20.417Z,24.93
2019-01-18T22:12:44.701Z,27.80
2019-01-18T22:16:00.836Z,26.57
2019-01-18T22:18:57.558Z,19.30
2019-01-18T22:22:01.348Z,20.63
2019-01-18T22:25:12.260Z,16.70
2019-01-18T22:28:28.768Z,28.83
2019-01-18T22:31:39.498Z,31.20
2019-01-18T22:34:24.991Z,25.77
2019-01-18T22:37:27.560Z,28.07
2019-01-18T22:40:48.177Z,24.13
2019-01-18T22:43:54.171Z,17.87
2019-01-18T22:47:19.187Z,21.10
2019-01-18T22:50:19.283Z,18.63
2019-01-18T22:53:27.140Z,24.57
2019-01-18T22:56:39.547Z,20.07
2019-01-18T22:59:48.311Z,23.23
2019-01-18T23:02:38.547Z,20.70
2019-01-18T23:05:45.765Z,20.43
2019-01-18T23:09:02.269Z,22.10
2019-01-18T23:12:13.301Z,25.40
2019-01-18T23:15:34.601Z,21.37
2019-01-18T23:18:20.141Z,22.33
2019-01-18T23:21:15.254Z,20.57
2019-01-18T23:24:22.193Z,24.67
2019-01-18T23:27:38.338Z,26.43
2019-01-18T23:30:29.153Z,21.67
2019-01-18T23:33:45.595Z,22.57
2019-01-18T23:36:39.906Z,21.30
2019-01-18T23:39:36.768Z,27.93
2019-01-18T23:42:35.568Z,22.17
2019-01-18T23:45:58.408Z,22.40
2019-01-18T23:49:13.765Z,22.50
2019-01-18T23:52:44.781Z,25.17
2019-01-18T23:55:50.046Z,30.33
2019-01-18T23:59:00.674Z,26.93
